Time;durP1;ratioP1;P1;durP2;ratioP2;P2;SDS_P1;SDS_P2;PMS_P1;PMS_P2;Temp;Humidity;BMP_temperature;BMP_pressure;BME280_temperature;BME280_humidity;BME280_pressure;Samples;Min_cycle;Max_cycle;Signal;HPM_P1;HPM_P2
2023/11/10 00:01:33;;;;;;;14.80;11.00;;;;;;;2.93;100.00;95556.66;5039641;28;20051;-70
2023/11/10 00:03:59;;;;;;;14.45;9.70;;;;;;;3.01;100.00;95555.72;5034882;28;20041;-70
2023/11/10 00:06:24;;;;;;;14.73;9.82;;;;;;;3.10;100.00;95560.97;5031821;28;20433;-70
2023/11/10 00:08:50;;;;;;;15.48;10.30;;;;;;;3.15;100.00;95560.72;5031963;28;20131;-70
2023/11/10 00:11:16;;;;;;;14.82;10.32;;;;;;;3.12;100.00;95563.34;5034621;28;20105;-70
2023/11/10 00:13:41;;;;;;;17.83;12.52;;;;;;;3.01;100.00;95558.44;5022294;28;20515;-69
2023/11/10 00:16:07;;;;;;;16.70;10.18;;;;;;;3.03;100.00;95550.75;5034947;28;20052;-68
2023/11/10 00:18:32;;;;;;;14.75;10.57;;;;;;;2.74;100.00;95549.19;5039538;28;20067;-69
2023/11/10 00:20:57;;;;;;;20.38;12.15;;;;;;;2.51;100.00;95548.94;5039322;28;20059;-69
2023/11/10 00:23:23;;;;;;;20.90;13.05;;;;;;;2.44;100.00;95556.81;5013714;28;20426;-68
2023/11/10 00:25:48;;;;;;;18.23;13.48;;;;;;;2.43;100.00;95542.53;5026637;28;20051;-69
2023/11/10 00:28:14;;;;;;;21.48;13.02;;;;;;;2.48;100.00;95541.50;5035148;28;20115;-69
2023/11/10 00:30:39;;;;;;;24.38;14.90;;;;;;;2.53;100.00;95540.47;5039409;28;20049;-68
2023/11/10 00:33:04;;;;;;;25.13;14.77;;;;;;;2.54;100.00;95529.31;5029520;28;20408;-67
2023/11/10 00:35:30;;;;;;;23.17;15.35;;;;;;;2.61;100.00;95526.81;5035896;28;20056;-68
2023/11/10 00:37:55;;;;;;;24.52;15.43;;;;;;;2.61;100.00;95523.31;5021135;28;20639;-68
2023/11/10 00:40:21;;;;;;;25.42;14.98;;;;;;;2.71;100.00;95516.66;5033255;28;21444;-68
2023/11/10 00:42:47;;;;;;;31.02;17.38;;;;;;;2.81;100.00;95508.03;5039691;28;20048;-68
2023/11/10 00:45:12;;;;;;;24.92;15.23;;;;;;;2.85;100.00;95507.00;5034772;28;20114;-68
2023/11/10 00:47:38;;;;;;;23.67;15.38;;;;;;;2.97;100.00;95508.06;5030014;28;20400;-68
2023/11/10 00:50:05;;;;;;;30.42;15.63;;;;;;;3.00;100.00;95508.16;5033738;28;20072;-68
2023/11/10 00:52:30;;;;;;;23.17;16.70;;;;;;;3.05;100.00;95507.91;5037679;28;20553;-68
2023/11/10 00:54:56;;;;;;;23.20;15.80;;;;;;;3.11;100.00;95503.00;5009084;28;20072;-69
2023/11/10 00:57:22;;;;;;;26.85;16.65;;;;;;;3.11;100.00;95499.53;5020481;28;20075;-68
2023/11/10 00:59:47;;;;;;;22.17;14.85;;;;;;;3.12;100.00;95493.00;5030249;28;20076;-68
2023/11/10 01:02:13;;;;;;;26.15;15.82;;;;;;;3.13;100.00;95494.56;5028173;28;20391;-68
2023/11/10 01:04:38;;;;;;;24.38;15.32;;;;;;;3.02;100.00;95491.56;5027395;28;20045;-68
2023/11/10 01:07:04;;;;;;;24.95;14.48;;;;;;;2.95;100.00;95489.47;5018451;28;20097;-68
2023/11/10 01:09:29;;;;;;;22.02;14.38;;;;;;;2.74;100.00;95491.59;5030679;28;20111;-70
2023/11/10 01:11:55;;;;;;;27.35;16.00;;;;;;;2.75;100.00;95490.47;5037673;28;20124;-71
2023/11/10 01:14:21;;;;;;;24.65;16.13;;;;;;;2.91;100.00;95490.53;5034745;28;20544;-69
2023/11/10 01:16:46;;;;;;;29.27;16.98;;;;;;;2.90;100.00;95494.34;5040614;28;20049;-69
2023/11/10 01:19:12;;;;;;;28.90;17.40;;;;;;;2.92;100.00;95476.66;5035217;28;20037;-71
2023/11/10 01:21:37;;;;;;;29.55;17.27;;;;;;;2.82;100.00;95480.63;5038064;28;20121;-70
2023/11/10 01:24:04;;;;;;;31.60;17.77;;;;;;;2.76;100.00;95475.84;5035792;28;20037;-67
2023/11/10 01:26:29;;;;;;;27.25;17.05;;;;;;;2.84;100.00;95464.84;5033529;28;20483;-70
2023/11/10 01:28:55;;;;;;;27.67;17.30;;;;;;;2.84;100.00;95461.38;5037689;28;20055;-70
2023/11/10 01:31:21;;;;;;;26.27;17.23;;;;;;;2.83;100.00;95462.50;5029291;28;20135;-70
2023/11/10 01:33:46;;;;;;;29.38;16.50;;;;;;;2.94;100.00;95463.56;5033641;28;20196;-69
2023/11/10 01:36:12;;;;;;;26.85;15.88;;;;;;;2.98;100.00;95463.66;5032981;28;20052;-69
2023/11/10 01:38:37;;;;;;;26.13;17.45;;;;;;;3.23;100.00;95454.25;5030936;28;20044;-69
2023/11/10 01:41:03;;;;;;;23.00;14.48;;;;;;;3.43;100.00;95465.94;5035705;28;20137;-69
2023/11/10 01:43:29;;;;;;;26.10;15.75;;;;;;;3.53;100.00;95461.91;5036234;28;20048;-69
2023/11/10 01:45:55;;;;;;;23.23;15.43;;;;;;;3.52;100.00;95464.97;5037335;28;20044;-69
2023/11/10 01:48:21;;;;;;;23.60;14.93;;;;;;;3.24;100.00;95458.53;5030862;28;20519;-68
2023/11/10 01:50:46;;;;;;;23.77;15.30;;;;;;;3.01;100.00;95466.47;5029710;28;20547;-68
2023/11/10 01:53:13;;;;;;;26.63;15.32;;;;;;;2.97;100.00;95464.78;5034571;28;20812;-68
2023/11/10 01:55:40;;;;;;;23.83;14.43;;;;;;;3.13;100.00;95464.78;5028694;28;20063;-68
2023/11/10 01:58:08;;;;;;;23.50;14.88;;;;;;;3.05;100.00;95469.25;5034096;28;20040;-67
2023/11/10 02:00:33;;;;;;;25.48;15.75;;;;;;;3.03;100.00;95458.78;5034066;28;20053;-68
2023/11/10 02:03:03;;;;;;;22.33;15.02;;;;;;;2.91;100.00;95450.72;5042076;28;20403;-68
2023/11/10 02:05:32;;;;;;;24.08;14.70;;;;;;;2.92;100.00;95448.81;5033463;28;20053;-68
2023/11/10 02:07:57;;;;;;;24.00;14.85;;;;;;;2.94;100.00;95452.75;5042350;28;20049;-67
2023/11/10 02:10:23;;;;;;;23.52;14.77;;;;;;;2.88;100.00;95448.72;5036398;28;20851;-69
2023/11/10 02:12:51;;;;;;;23.05;14.45;;;;;;;2.91;100.00;95452.66;5032506;28;20056;-68
2023/11/10 02:15:17;;;;;;;24.00;14.98;;;;;;;3.12;100.00;95455.91;5037604;28;20101;-68
2023/11/10 02:17:42;;;;;;;25.98;15.07;;;;;;;3.25;100.00;95456.59;5041543;28;20113;-68
2023/11/10 02:20:08;;;;;;;28.55;15.13;;;;;;;3.27;100.00;95451.63;5036495;28;20045;-69
2023/11/10 02:22:34;;;;;;;24.40;15.48;;;;;;;3.44;100.00;95462.09;5041705;28;20064;-70
2023/11/10 02:25:03;;;;;;;22.38;14.95;;;;;;;3.50;100.00;95461.84;5042202;28;20499;-68
2023/11/10 02:27:28;;;;;;;21.20;13.73;;;;;;;3.52;100.00;95452.22;5032543;28;20049;-69
2023/11/10 02:29:53;;;;;;;24.80;13.60;;;;;;;3.52;100.00;95444.09;5041345;28;20041;-68
2023/11/10 02:32:19;;;;;;;18.80;12.05;;;;;;;3.54;100.00;95460.75;5027898;28;20547;-69
2023/11/10 02:34:45;;;;;;;18.63;12.85;;;;;;;3.72;100.00;95441.44;5040911;28;20049;-69
2023/11/10 02:37:13;;;;;;;20.10;12.63;;;;;;;3.82;100.00;95438.97;5032143;28;20046;-69
2023/11/10 02:39:39;;;;;;;20.10;13.32;;;;;;;3.81;100.00;95428.50;5037571;28;20518;-70
2023/11/10 02:42:04;;;;;;;18.20;12.90;;;;;;;3.80;100.00;95426.94;5008047;28;20046;-68
2023/11/10 02:44:30;;;;;;;19.02;12.20;;;;;;;3.89;100.00;95424.00;5037786;28;20045;-69
2023/11/10 02:46:56;;;;;;;19.95;12.75;;;;;;;3.99;100.00;95426.16;5027867;28;20054;-68
2023/11/10 02:49:21;;;;;;;18.73;11.25;;;;;;;4.11;100.00;95420.63;5025473;28;20102;-68
2023/11/10 02:51:47;;;;;;;13.57;10.00;;;;;;;4.10;100.00;95418.25;5029420;28;20072;-68
2023/11/10 02:54:12;;;;;;;15.48;10.20;;;;;;;4.01;100.00;95423.88;5025377;28;20072;-69
2023/11/10 02:56:38;;;;;;;15.70;9.80;;;;;;;4.13;100.00;95426.47;5037782;28;20044;-68
2023/11/10 02:59:04;;;;;;;15.07;10.15;;;;;;;4.05;100.00;95423.94;5037725;28;20052;-67
2023/11/10 03:01:30;;;;;;;14.52;10.25;;;;;;;4.15;100.00;95432.31;5032513;28;20044;-68
2023/11/10 03:03:55;;;;;;;15.85;9.55;;;;;;;4.24;100.00;95428.63;5038418;28;20068;-69
2023/11/10 03:06:21;;;;;;;12.02;8.60;;;;;;;4.15;100.00;95415.28;5011376;28;20396;-68
2023/11/10 03:08:47;;;;;;;13.25;8.63;;;;;;;4.31;100.00;95413.28;5040922;28;20130;-69
2023/11/10 03:11:12;;;;;;;11.57;8.05;;;;;;;4.41;100.00;95406.47;5034905;28;20614;-70
2023/11/10 03:13:41;;;;;;;11.98;8.40;;;;;;;4.30;100.00;95408.97;5038963;28;20045;-69
2023/11/10 03:16:07;;;;;;;10.02;7.53;;;;;;;4.30;100.00;95400.06;5036402;28;20060;-70
2023/11/10 03:18:32;;;;;;;10.20;7.00;;;;;;;4.28;100.00;95400.41;5039855;28;20478;-69
2023/11/10 03:21:00;;;;;;;13.10;6.97;;;;;;;4.44;100.00;95397.63;5040867;28;20131;-70
2023/11/10 03:23:26;;;;;;;9.27;6.90;;;;;;;4.46;100.00;95400.75;5034800;28;20360;-70
2023/11/10 03:25:51;;;;;;;8.55;5.25;;;;;;;4.62;100.00;95397.97;5038558;28;20107;-70
2023/11/10 03:28:16;;;;;;;6.82;4.70;;;;;;;4.78;100.00;95406.78;5028551;28;20144;-70
2023/11/10 03:30:42;;;;;;;8.02;3.70;;;;;;;4.99;100.00;95405.59;5030312;28;20046;-70
2023/11/10 03:33:07;;;;;;;8.15;5.03;;;;;;;5.24;100.00;95403.31;5036085;28;20163;-71
2023/11/10 03:35:32;;;;;;;7.93;4.93;;;;;;;5.48;100.00;95404.03;5041313;28;20471;-69
2023/11/10 03:37:58;;;;;;;4.30;3.13;;;;;;;5.63;100.00;95405.81;5037604;28;20051;-70
2023/11/10 03:40:25;;;;;;;5.03;2.90;;;;;;;5.76;100.00;95400.94;5029756;28;20566;-70
2023/11/10 03:42:50;;;;;;;4.35;2.90;;;;;;;5.85;100.00;95398.75;5031111;28;20090;-70
2023/11/10 03:45:15;;;;;;;3.35;2.60;;;;;;;5.97;100.00;95405.91;5030046;28;20057;-71
2023/11/10 03:47:41;;;;;;;2.78;2.28;;;;;;;6.06;100.00;95400.22;5037376;28;20572;-70
2023/11/10 03:50:07;;;;;;;3.33;2.45;;;;;;;6.17;100.00;95401.13;5027798;28;20041;-70
2023/11/10 03:52:33;;;;;;;3.55;2.38;;;;;;;6.28;100.00;95406.69;5033245;28;20057;-70
2023/11/10 03:54:59;;;;;;;6.65;2.38;;;;;;;6.36;100.00;95404.88;5022441;28;20164;-70
2023/11/10 03:57:25;;;;;;;5.03;2.40;;;;;;;6.54;100.00;95402.34;5019991;28;20041;-71
2023/11/10 03:59:50;;;;;;;2.67;2.20;;;;;;;6.55;100.00;95406.63;5028284;28;20546;-70
2023/11/10 04:02:15;;;;;;;3.47;2.25;;;;;;;6.57;100.00;95407.81;5025903;28;20505;-70
2023/11/10 04:04:41;;;;;;;2.97;2.03;;;;;;;6.51;100.00;95407.34;5031742;28;20051;-70
2023/11/10 04:07:06;;;;;;;2.95;1.85;;;;;;;6.51;100.00;95409.31;5031490;28;20041;-70
2023/11/10 04:09:35;;;;;;;2.50;2.08;;;;;;;6.55;100.00;95421.00;5027078;28;20041;-71
2023/11/10 04:12:02;;;;;;;3.22;2.13;;;;;;;6.50;100.00;95430.28;5034310;28;20037;-71
2023/11/10 04:14:27;;;;;;;3.45;1.92;;;;;;;6.57;100.00;95426.06;5023659;28;20057;-71
2023/11/10 04:16:53;;;;;;;2.88;1.90;;;;;;;6.62;100.00;95426.50;5031466;28;20043;-71
2023/11/10 04:19:18;;;;;;;2.25;1.70;;;;;;;6.60;100.00;95437.00;5021189;28;20540;-71
2023/11/10 04:21:44;;;;;;;3.40;2.10;;;;;;;6.61;100.00;95441.28;5027898;28;20083;-70
2023/11/10 04:24:11;;;;;;;2.15;1.52;;;;;;;6.46;100.00;95440.34;5014559;28;20041;-71
2023/11/10 04:26:37;;;;;;;4.15;1.85;;;;;;;6.51;100.00;95436.50;5028380;28;20896;-70
2023/11/10 04:29:05;;;;;;;1.52;1.20;;;;;;;6.55;100.00;95442.75;5025834;28;20144;-71
2023/11/10 04:31:31;;;;;;;2.25;1.40;;;;;;;6.60;100.00;95439.72;5020307;28;20103;-72
2023/11/10 04:33:56;;;;;;;2.10;1.40;;;;;;;6.57;100.00;95426.06;5028763;28;20046;-72
2023/11/10 04:36:22;;;;;;;1.45;1.08;;;;;;;6.47;100.00;95417.41;5022342;28;21002;-71
2023/11/10 04:38:48;;;;;;;1.00;0.90;;;;;;;6.35;100.00;95425.03;5021705;28;20049;-71
2023/11/10 04:41:15;;;;;;;1.17;0.98;;;;;;;6.38;100.00;95418.88;5023148;28;20033;-71
2023/11/10 04:43:47;;;;;;;2.45;1.17;;;;;;;6.23;100.00;95418.69;5042781;28;20415;-70
2023/11/10 04:46:12;;;;;;;2.63;1.17;;;;;;;6.21;100.00;95425.63;5032215;28;20045;-72
2023/11/10 04:48:38;;;;;;;1.63;1.20;;;;;;;6.11;100.00;95435.22;5023354;28;20357;-70
2023/11/10 04:51:04;;;;;;;1.52;1.10;;;;;;;6.14;100.00;95437.22;5013504;28;20045;-71
2023/11/10 04:53:29;;;;;;;1.13;1.02;;;;;;;6.17;100.00;95436.47;5013516;28;20081;-69
2023/11/10 04:55:55;;;;;;;2.40;1.23;;;;;;;5.99;100.00;95435.47;5015437;28;20100;-70
2023/11/10 04:58:20;;;;;;;1.90;1.20;;;;;;;6.05;100.00;95444.84;5011992;28;20042;-69
2023/11/10 05:00:46;;;;;;;1.17;1.00;;;;;;;5.96;100.00;95449.78;5015977;28;20046;-70
2023/11/10 05:03:12;;;;;;;1.00;0.80;;;;;;;5.94;100.00;95444.66;5010456;28;20060;-70
2023/11/10 05:05:37;;;;;;;1.80;1.08;;;;;;;5.85;100.00;95447.69;5016606;28;20100;-69
2023/11/10 05:08:03;;;;;;;3.17;1.00;;;;;;;5.89;100.00;95448.50;5012399;28;20049;-71
2023/11/10 05:10:30;;;;;;;0.82;0.70;;;;;;;5.94;100.00;95436.50;5015273;28;20124;-69
2023/11/10 05:12:55;;;;;;;0.80;0.80;;;;;;;5.92;100.00;95442.34;5016394;28;20144;-69
2023/11/10 05:15:21;;;;;;;1.70;1.10;;;;;;;5.90;100.00;95463.63;5011734;28;20136;-69
2023/11/10 05:17:47;;;;;;;2.25;1.00;;;;;;;5.82;100.00;95450.34;5015886;28;20045;-70
2023/11/10 05:20:13;;;;;;;1.33;0.80;;;;;;;5.87;100.00;95461.69;5011253;28;20065;-70
2023/11/10 05:22:43;;;;;;;1.67;1.30;;;;;;;5.94;100.00;95455.53;5016202;28;20052;-70
2023/11/10 05:25:09;;;;;;;;;;;;;;;5.98;100.00;95459.13;5004891;28;20132;-69
2023/11/10 05:27:34;;;;;;;0.70;0.70;;;;;;;5.89;100.00;95470.25;5016374;28;19996;-69
2023/11/10 05:30:00;;;;;;;1.27;0.90;;;;;;;5.95;100.00;95478.88;5017355;28;20547;-70
2023/11/10 05:32:26;;;;;;;0.68;0.60;;;;;;;5.93;100.00;95471.06;5014619;28;20536;-70
2023/11/10 05:34:53;;;;;;;0.50;0.50;;;;;;;5.87;100.00;95477.97;5021038;28;20105;-70
2023/11/10 05:37:20;;;;;;;0.60;0.60;;;;;;;5.83;100.00;95479.06;5026454;28;20046;-69
2023/11/10 05:39:46;;;;;;;0.60;0.60;;;;;;;5.68;100.00;95476.13;5016702;28;20065;-70
2023/11/10 05:42:13;;;;;;;0.68;0.57;;;;;;;5.58;100.00;95479.44;5011141;28;20101;-69
2023/11/10 05:44:38;;;;;;;1.52;0.52;;;;;;;5.53;100.00;95471.63;5016622;28;20045;-69
2023/11/10 05:47:04;;;;;;;0.40;0.40;;;;;;;5.52;100.00;95484.41;5011204;28;20053;-68
2023/11/10 05:49:29;;;;;;;2.20;0.65;;;;;;;5.44;100.00;95484.66;5015711;28;20134;-69
2023/11/10 05:51:55;;;;;;;2.17;0.75;;;;;;;5.43;100.00;95481.16;5016047;28;20042;-68
2023/11/10 05:54:20;;;;;;;0.63;0.50;;;;;;;5.48;100.00;95480.09;5001219;28;21489;-68
2023/11/10 05:56:46;;;;;;;0.57;0.50;;;;;;;5.45;100.00;95478.88;5001862;28;20524;-69
2023/11/10 05:59:11;;;;;;;0.60;0.60;;;;;;;5.46;100.00;95471.53;4998155;28;20507;-69
2023/11/10 06:01:36;;;;;;;0.82;0.60;;;;;;;5.43;100.00;95469.53;5002591;28;20612;-71
2023/11/10 06:04:02;;;;;;;1.90;0.50;;;;;;;5.49;100.00;95473.50;5001170;28;20084;-72
2023/11/10 06:06:28;;;;;;;3.17;0.70;;;;;;;5.48;100.00;95474.66;4997612;28;20046;-71
2023/11/10 06:08:54;;;;;;;1.67;0.80;;;;;;;5.46;100.00;95479.66;5001591;28;20046;-71
2023/11/10 06:11:23;;;;;;;1.52;0.65;;;;;;;5.46;100.00;95474.25;4996985;28;20140;-72
2023/11/10 06:13:49;;;;;;;2.37;0.63;;;;;;;5.45;100.00;95483.53;4999529;28;20054;-72
2023/11/10 06:16:18;;;;;;;0.68;0.60;;;;;;;5.44;100.00;95493.59;4996361;28;20046;-71
2023/11/10 06:18:47;;;;;;;4.27;0.83;;;;;;;5.42;100.00;95498.63;5001564;28;20044;-68
2023/11/10 06:21:13;;;;;;;2.33;0.65;;;;;;;5.39;100.00;95512.13;4996751;28;20042;-69
2023/11/10 06:23:38;;;;;;;2.83;0.77;;;;;;;5.36;100.00;95524.47;5001418;28;20053;-69
2023/11/10 06:26:05;;;;;;;2.08;0.70;;;;;;;5.38;100.00;95515.97;4996820;28;20059;-70
2023/11/10 06:28:31;;;;;;;2.63;0.70;;;;;;;5.41;100.00;95518.75;5001974;28;20057;-69
2023/11/10 06:30:57;;;;;;;0.68;0.68;;;;;;;5.40;100.00;95514.47;5000922;28;20041;-69
2023/11/10 06:33:24;;;;;;;0.60;0.60;;;;;;;5.43;100.00;95518.41;4997076;28;20626;-69
2023/11/10 06:35:49;;;;;;;3.45;0.82;;;;;;;5.44;100.00;95514.53;5002198;28;20054;-70
2023/11/10 06:38:15;;;;;;;0.70;0.55;;;;;;;5.43;100.00;95510.25;4997041;28;20061;-69
2023/11/10 06:40:40;;;;;;;1.63;0.80;;;;;;;5.47;100.00;95511.09;5001132;28;20048;-69
2023/11/10 06:43:07;;;;;;;1.67;0.88;;;;;;;5.43;100.00;95518.41;4988809;28;20061;-68
2023/11/10 06:45:32;;;;;;;1.13;0.70;;;;;;;5.43;100.00;95527.31;5016441;28;20050;-68
2023/11/10 06:48:02;;;;;;;1.65;0.50;;;;;;;5.40;100.00;95529.97;5000973;28;20532;-69
2023/11/10 06:50:29;;;;;;;0.90;0.57;;;;;;;5.42;100.00;95530.41;4998329;28;20042;-69
2023/11/10 06:52:54;;;;;;;0.90;0.70;;;;;;;5.43;100.00;95537.41;5000327;28;20246;-68
2023/11/10 06:55:20;;;;;;;1.30;0.82;;;;;;;5.40;100.00;95538.91;4996121;28;20137;-68
2023/11/10 06:57:46;;;;;;;1.55;0.60;;;;;;;5.42;100.00;95533.91;5000409;28;20053;-68
2023/11/10 07:00:12;;;;;;;2.88;0.70;;;;;;;5.39;100.00;95542.00;4995814;28;20066;-69
2023/11/10 07:02:37;;;;;;;1.88;0.70;;;;;;;5.46;100.00;95548.34;5000907;28;20472;-68
2023/11/10 07:05:04;;;;;;;8.05;1.55;;;;;;;5.54;100.00;95539.16;4998000;28;20096;-70
2023/11/10 07:07:30;;;;;;;1.88;0.90;;;;;;;5.61;100.00;95538.50;4998980;28;20113;-70
2023/11/10 07:09:59;;;;;;;1.77;0.70;;;;;;;5.55;100.00;95537.25;5001118;28;20073;-70
2023/11/10 07:12:25;;;;;;;1.55;0.98;;;;;;;5.64;100.00;95542.44;4995882;28;20633;-69
2023/11/10 07:14:51;;;;;;;0.77;0.60;;;;;;;5.68;100.00;95546.75;5000897;28;20096;-70
2023/11/10 07:17:17;;;;;;;1.75;0.80;;;;;;;5.79;100.00;95543.44;4995417;28;20097;-70
2023/11/10 07:19:44;;;;;;;2.70;0.90;;;;;;;5.88;100.00;95541.25;4998691;28;20172;-71
2023/11/10 07:22:09;;;;;;;1.50;0.90;;;;;;;5.83;100.00;95536.13;4995968;28;20030;-71
2023/11/10 07:24:35;;;;;;;1.60;0.93;;;;;;;5.84;100.00;95543.91;5000407;28;20382;-70
2023/11/10 07:27:00;;;;;;;0.75;0.73;;;;;;;5.87;100.00;95539.69;5000665;28;20041;-69
2023/11/10 07:29:26;;;;;;;1.70;0.80;;;;;;;5.93;100.00;95543.66;4997573;28;20045;-69
2023/11/10 07:31:52;;;;;;;1.48;0.70;;;;;;;5.95;100.00;95546.81;4999397;28;20041;-69
2023/11/10 07:34:18;;;;;;;1.45;0.82;;;;;;;5.91;100.00;95548.69;4994507;28;20041;-68
2023/11/10 07:36:44;;;;;;;1.77;0.88;;;;;;;5.94;100.00;95546.03;4999227;28;20064;-69
2023/11/10 07:39:11;;;;;;;2.00;1.20;;;;;;;5.87;100.00;95551.34;4994071;28;20117;-69
2023/11/10 07:41:37;;;;;;;1.42;0.95;;;;;;;6.00;100.00;95551.97;5000393;28;20057;-69
2023/11/10 07:44:03;;;;;;;1.88;0.90;;;;;;;5.95;100.00;95546.81;4998355;28;20077;-70
2023/11/10 07:46:29;;;;;;;1.13;0.68;;;;;;;6.00;100.00;95554.69;4992386;28;20049;-69
2023/11/10 07:48:55;;;;;;;0.68;0.68;;;;;;;5.99;100.00;95547.66;4999535;28;20045;-73
2023/11/10 07:51:24;;;;;;;0.60;0.60;;;;;;;5.90;100.00;95550.59;4995943;28;20042;-70
2023/11/10 07:53:49;;;;;;;1.10;0.90;;;;;;;6.00;100.00;95549.25;5007250;28;20634;-69
2023/11/10 07:56:14;;;;;;;0.95;0.70;;;;;;;6.11;100.00;95549.41;5003764;28;20132;-70
2023/11/10 07:58:40;;;;;;;1.35;0.90;;;;;;;6.28;100.00;95548.09;5008805;28;20362;-69
2023/11/10 08:01:05;;;;;;;2.13;1.10;;;;;;;6.29;100.00;95544.25;5006045;28;20377;-70
2023/11/10 08:03:30;;;;;;;1.40;1.00;;;;;;;6.31;100.00;95542.69;5010546;28;20045;-69
2023/11/10 08:05:56;;;;;;;1.75;1.00;;;;;;;6.48;100.00;95549.56;5011544;28;20112;-68
2023/11/10 08:08:21;;;;;;;6.32;1.25;;;;;;;6.70;100.00;95560.72;5003649;28;20053;-69
2023/11/10 08:10:47;;;;;;;2.78;1.80;;;;;;;6.73;100.00;95559.97;5032264;28;20750;-70
2023/11/10 08:13:12;;;;;;;3.03;1.90;;;;;;;6.69;100.00;95553.69;4995010;28;20129;-70
2023/11/10 08:15:38;;;;;;;4.03;2.22;;;;;;;6.75;100.00;95560.38;5016142;28;20052;-70
2023/11/10 08:18:03;;;;;;;2.15;1.23;;;;;;;6.91;100.00;95567.59;4998075;28;20115;-70
2023/11/10 08:20:30;;;;;;;2.95;1.50;;;;;;;6.97;100.00;95566.09;5006543;28;20046;-69
2023/11/10 08:22:56;;;;;;;2.05;1.17;;;;;;;6.95;100.00;95560.22;5008978;28;20054;-70
2023/11/10 08:25:22;;;;;;;3.20;1.40;;;;;;;6.67;100.00;95548.63;5001081;28;20049;-69
2023/11/10 08:27:47;;;;;;;3.20;1.20;;;;;;;6.66;100.00;95549.78;5007935;28;20072;-70
2023/11/10 08:30:13;;;;;;;3.58;1.73;;;;;;;6.86;100.00;95549.63;4992618;28;20045;-70
2023/11/10 08:32:39;;;;;;;1.70;1.13;;;;;;;6.91;100.00;95543.84;5009599;28;20046;-70
2023/11/10 08:35:06;;;;;;;1.52;1.20;;;;;;;6.95;100.00;95544.72;5006872;28;20045;-69
2023/11/10 08:37:31;;;;;;;2.03;0.85;;;;;;;6.97;100.00;95547.84;5006293;28;20042;-71
2023/11/10 08:39:57;;;;;;;3.13;1.00;;;;;;;6.96;100.00;95551.69;4998741;28;20528;-70
2023/11/10 08:42:22;;;;;;;1.98;0.63;;;;;;;6.92;100.00;95550.88;4993553;28;20073;-70
2023/11/10 08:44:48;;;;;;;2.00;1.30;;;;;;;6.92;100.00;95541.94;4999511;28;20452;-70
2023/11/10 08:47:14;;;;;;;1.45;0.70;;;;;;;6.94;100.00;95547.78;5011721;28;20452;-69
2023/11/10 08:49:39;;;;;;;1.00;0.70;;;;;;;7.00;100.00;95555.25;4999536;28;20042;-68
2023/11/10 08:52:05;;;;;;;2.55;0.80;;;;;;;7.16;100.00;95555.03;5006032;28;20042;-69
2023/11/10 08:54:32;;;;;;;1.23;0.93;;;;;;;7.05;100.00;95559.59;5019821;28;20042;-70
2023/11/10 08:56:59;;;;;;;1.05;0.90;;;;;;;7.15;100.00;95558.13;5011631;28;20080;-68
2023/11/10 08:59:24;;;;;;;1.80;1.00;;;;;;;7.26;100.00;95565.28;5007165;28;20300;-70
2023/11/10 09:01:51;;;;;;;2.30;0.80;;;;;;;7.27;100.00;95566.84;5034143;28;20560;-70
2023/11/10 09:04:17;;;;;;;3.08;1.10;;;;;;;7.23;100.00;95562.50;5014154;28;20145;-70
2023/11/10 09:06:42;;;;;;;1.48;0.70;;;;;;;7.33;100.00;95564.56;5016599;28;20420;-70
2023/11/10 09:09:08;;;;;;;2.65;1.13;;;;;;;7.35;100.00;95559.53;5013702;28;20395;-70
2023/11/10 09:11:34;;;;;;;1.00;0.90;;;;;;;7.29;100.00;95561.00;5018330;28;20049;-70
2023/11/10 09:13:59;;;;;;;1.30;0.90;;;;;;;7.42;100.00;95556.09;5009915;28;20053;-70
2023/11/10 09:16:25;;;;;;;1.35;0.90;;;;;;;7.47;100.00;95559.28;5007715;28;20092;-68
2023/11/10 09:18:52;;;;;;;1.48;0.82;;;;;;;7.52;100.00;95557.34;5017458;28;20060;-69
2023/11/10 09:21:18;;;;;;;1.00;0.90;;;;;;;7.67;100.00;95553.63;5011969;28;20040;-68
2023/11/10 09:23:43;;;;;;;4.32;1.33;;;;;;;7.99;100.00;95548.41;5018865;28;20148;-68
2023/11/10 09:26:09;;;;;;;1.92;1.00;;;;;;;8.07;100.00;95549.28;5005935;28;20049;-68
2023/11/10 09:28:34;;;;;;;1.67;1.00;;;;;;;7.97;100.00;95555.41;5006611;28;20042;-69
2023/11/10 09:30:59;;;;;;;3.67;1.40;;;;;;;7.89;100.00;95556.53;5016159;28;20456;-69
2023/11/10 09:33:25;;;;;;;1.27;0.82;;;;;;;7.88;100.00;95563.91;5018745;28;20045;-69
2023/11/10 09:35:50;;;;;;;1.05;0.70;;;;;;;7.74;100.00;95564.59;5013985;28;20557;-68
2023/11/10 09:38:16;;;;;;;1.10;0.80;;;;;;;7.52;100.00;95562.81;5016624;28;20041;-67
2023/11/10 09:40:42;;;;;;;2.65;0.98;;;;;;;7.45;100.00;95563.50;5012584;28;20690;-69
2023/11/10 09:43:08;;;;;;;0.77;0.65;;;;;;;7.59;100.00;95563.66;5008299;28;20471;-69
2023/11/10 09:45:35;;;;;;;1.17;0.82;;;;;;;7.82;100.00;95566.19;5022806;28;20079;-69
2023/11/10 09:48:06;;;;;;;1.95;1.00;;;;;;;8.00;100.00;95555.44;5015587;28;20046;-71
2023/11/10 09:50:35;;;;;;;1.50;1.00;;;;;;;8.34;100.00;95563.50;5016924;28;20083;-72
2023/11/10 09:53:03;;;;;;;4.07;1.00;;;;;;;8.55;100.00;95567.53;5011474;28;20567;-70
2023/11/10 09:55:29;;;;;;;2.15;0.82;;;;;;;8.85;100.00;95577.47;4999804;28;20050;-70
2023/11/10 09:57:55;;;;;;;1.52;0.90;;;;;;;9.19;100.00;95575.25;5011424;28;20451;-71
2023/11/10 10:00:22;;;;;;;2.03;1.00;;;;;;;9.51;100.00;95575.34;5012791;28;20038;-71
2023/11/10 10:02:48;;;;;;;1.88;0.90;;;;;;;9.85;100.00;95569.56;5019019;28;20045;-71
2023/11/10 10:05:14;;;;;;;1.52;1.08;;;;;;;9.30;100.00;95570.59;5024448;28;20175;-70
2023/11/10 10:07:39;;;;;;;1.48;0.98;;;;;;;9.33;100.00;95563.59;5028666;28;20060;-70
2023/11/10 10:10:09;;;;;;;1.92;0.95;;;;;;;9.22;100.00;95558.09;5015836;28;20050;-71
2023/11/10 10:12:35;;;;;;;0.95;0.70;;;;;;;9.31;100.00;95561.25;5018216;28;20500;-71
2023/11/10 10:15:01;;;;;;;2.58;0.70;;;;;;;8.98;100.00;95554.09;5022465;28;20455;-70
2023/11/10 10:17:36;;;;;;;1.98;0.90;;;;;;;8.97;100.00;95566.22;5008392;28;20045;-70
2023/11/10 10:20:08;;;;;;;2.47;1.00;;;;;;;8.71;100.00;95561.78;5012933;28;20535;-69
2023/11/10 10:22:33;;;;;;;3.45;1.00;;;;;;;8.58;100.00;95547.69;5020963;28;20499;-70
2023/11/10 10:24:59;;;;;;;3.30;1.08;;;;;;;8.84;100.00;95541.19;5012827;28;20054;-70
2023/11/10 10:27:24;;;;;;;1.85;1.05;;;;;;;8.97;100.00;95530.72;5008915;28;20097;-70
2023/11/10 10:29:51;;;;;;;1.15;0.80;;;;;;;9.00;100.00;95535.38;5018199;28;20403;-69
2023/11/10 10:32:17;;;;;;;2.22;0.77;;;;;;;9.72;100.00;95530.06;5001916;28;20037;-67
2023/11/10 10:34:42;;;;;;;1.95;0.90;;;;;;;10.87;100.00;95536.22;5015672;28;20046;-67
2023/11/10 10:37:11;;;;;;;1.35;0.80;;;;;;;11.09;100.00;95536.91;5014524;28;20597;-67
2023/11/10 10:39:40;;;;;;;1.70;0.80;;;;;;;11.47;100.00;95528.13;5021512;28;20145;-68
2023/11/10 10:42:12;;;;;;;1.98;0.98;;;;;;;11.74;100.00;95535.75;5011359;28;20084;-69
2023/11/10 10:44:38;;;;;;;3.90;1.05;;;;;;;11.77;100.00;95530.25;5001891;28;20137;-69
2023/11/10 10:47:07;;;;;;;3.20;0.70;;;;;;;11.82;100.00;95523.56;4998676;28;20080;-70
2023/11/10 10:49:32;;;;;;;2.85;1.10;;;;;;;11.47;100.00;95530.88;5000175;28;20042;-68
2023/11/10 10:52:00;;;;;;;2.28;0.80;;;;;;;10.85;100.00;95522.13;5001210;28;20098;-69
2023/11/10 10:54:25;;;;;;;2.08;1.00;;;;;;;10.99;100.00;95526.00;4996687;28;20377;-69
2023/11/10 10:56:52;;;;;;;1.15;0.70;;;;;;;10.79;100.00;95526.47;5001019;28;20149;-68
2023/11/10 10:59:18;;;;;;;1.77;0.80;;;;;;;10.27;100.00;95524.22;4996186;28;20437;-67
2023/11/10 11:01:46;;;;;;;3.10;1.10;;;;;;;9.59;100.00;95515.25;5000700;28;20050;-68
2023/11/10 11:04:15;;;;;;;1.48;0.82;;;;;;;9.23;100.00;95510.47;4996146;28;20046;-69
2023/11/10 11:07:12;;;;;;;1.08;0.70;;;;;;;8.99;100.00;95501.84;5002120;28;20038;-69
2023/11/10 11:10:06;;;;;;;1.02;0.75;;;;;;;8.78;100.00;95504.47;4997084;28;20038;-70
2023/11/10 11:12:45;;;;;;;1.67;0.80;;;;;;;8.84;100.00;95500.22;4994712;28;20531;-70
2023/11/10 11:15:24;;;;;;;1.52;0.90;;;;;;;8.70;100.00;95497.44;4996062;28;20064;-70
2023/11/10 11:18:00;;;;;;;0.80;0.80;;;;;;;9.01;100.00;95485.06;5000557;28;20153;-70
2023/11/10 11:20:26;;;;;;;1.55;0.80;;;;;;;8.97;100.00;95489.75;4989690;28;20045;-68
2023/11/10 11:22:51;;;;;;;1.15;0.75;;;;;;;8.95;100.00;95487.41;5002209;28;20076;-70
2023/11/10 11:25:18;;;;;;;1.80;0.80;;;;;;;9.02;100.00;95486.63;4996227;28;20054;-70